createdAt,value
2018-01-23T00:01:45.740Z,1.61
2018-01-23T00:04:13.334Z,1.63
2018-01-23T00:06:40.911Z,1.69
2018-01-23T00:09:08.495Z,1.66
2018-01-23T00:11:36.076Z,1.67
2018-01-23T00:14:03.642Z,1.69
2018-01-23T00:16:31.217Z,1.67
2018-01-23T00:18:58.807Z,1.65
2018-01-23T00:21:26.365Z,1.66
2018-01-23T00:23:54.236Z,1.58
2018-01-23T00:26:21.912Z,1.62
2018-01-23T00:28:49.470Z,1.68
2018-01-23T00:31:17.091Z,1.67
2018-01-23T00:33:44.639Z,1.67
2018-01-23T00:36:12.209Z,1.71
2018-01-23T00:38:39.812Z,1.72
2018-01-23T00:41:07.373Z,1.75
2018-01-23T00:43:34.953Z,1.74
2018-01-23T00:46:02.584Z,1.70
2018-01-23T00:48:30.151Z,1.71
2018-01-23T00:50:57.730Z,1.75
2018-01-23T00:53:25.346Z,1.77
2018-01-23T00:55:52.956Z,1.84
2018-01-23T00:58:20.523Z,1.80
2018-01-23T01:00:48.096Z,1.81
2018-01-23T01:03:15.713Z,1.80
2018-01-23T01:05:43.307Z,1.79
2018-01-23T01:08:10.910Z,1.77
2018-01-23T01:10:38.471Z,1.78
2018-01-23T01:13:06.086Z,1.69
2018-01-23T01:15:33.686Z,1.80
2018-01-23T01:18:01.589Z,1.85
2018-01-23T01:20:29.157Z,1.85
2018-01-23T01:22:56.738Z,1.85
2018-01-23T01:25:24.348Z,1.80
2018-01-23T01:27:52.242Z,1.74
2018-01-23T01:30:19.840Z,1.71
2018-01-23T01:32:47.772Z,1.74
2018-01-23T01:35:15.321Z,1.73
2018-01-23T01:37:42.954Z,1.75
2018-01-23T01:40:10.536Z,1.85
2018-01-23T01:42:38.088Z,1.72
2018-01-23T01:45:05.988Z,1.74
2018-01-23T01:47:33.531Z,1.74
2018-01-23T01:50:01.093Z,1.78
2018-01-23T01:52:28.697Z,1.64
2018-01-23T01:54:56.249Z,1.49
2018-01-23T01:57:24.097Z,1.64
2018-01-23T01:59:51.681Z,1.76
2018-01-23T02:02:19.237Z,1.79
2018-01-23T02:04:47.083Z,1.81
2018-01-23T02:07:14.720Z,1.88
2018-01-23T02:09:42.313Z,1.77
2018-01-23T02:12:09.946Z,1.77
2018-01-23T02:14:37.826Z,1.74
2018-01-23T02:17:05.526Z,1.78
2018-01-23T02:19:33.129Z,1.72
2018-01-23T02:22:00.683Z,1.42
2018-01-23T02:24:28.295Z,1.54
2018-01-23T02:26:55.900Z,1.59
2018-01-23T02:29:23.463Z,1.64
2018-01-23T02:31:51.065Z,1.69
2018-01-23T02:34:18.661Z,1.73
2018-01-23T02:36:46.245Z,1.65
2018-01-23T02:39:13.799Z,1.68
2018-01-23T02:41:41.393Z,1.75
2018-01-23T02:44:09.280Z,1.75
2018-01-23T02:46:37.147Z,1.79
2018-01-23T02:49:04.709Z,1.81
2018-01-23T02:51:32.288Z,1.85
2018-01-23T02:54:00.239Z,1.85
2018-01-23T02:56:27.981Z,1.89
2018-01-23T02:58:55.556Z,1.92
2018-01-23T03:01:23.435Z,1.93
2018-01-23T03:03:50.982Z,1.87
2018-01-23T03:06:18.535Z,1.93
2018-01-23T03:08:46.353Z,1.92
2018-01-23T03:11:13.977Z,1.94
2018-01-23T03:13:41.526Z,1.94
2018-01-23T03:16:09.370Z,1.97
2018-01-23T03:18:36.916Z,1.95
2018-01-23T03:21:04.470Z,1.95
2018-01-23T03:23:32.046Z,1.98
2018-01-23T03:25:59.964Z,1.96
2018-01-23T03:28:27.583Z,1.98
2018-01-23T03:30:55.174Z,1.88
2018-01-23T03:33:22.763Z,1.90
2018-01-23T03:35:50.342Z,1.91
2018-01-23T03:38:17.931Z,1.91
2018-01-23T03:40:45.853Z,1.93
2018-01-23T03:43:13.410Z,1.96
2018-01-23T03:45:40.986Z,1.95
2018-01-23T03:48:08.559Z,1.98
2018-01-23T03:50:36.146Z,1.98
2018-01-23T03:53:03.752Z,2.00
2018-01-23T03:55:31.363Z,2.01
2018-01-23T03:57:58.939Z,1.99
2018-01-23T04:00:26.556Z,2.01
2018-01-23T04:02:54.405Z,1.98
2018-01-23T04:05:22.072Z,2.01
2018-01-23T04:07:49.708Z,2.05
2018-01-23T04:10:17.278Z,2.08
2018-01-23T04:12:44.874Z,2.08
2018-01-23T04:15:12.417Z,2.07
2018-01-23T04:17:40.035Z,2.07
2018-01-23T04:20:07.619Z,2.07
2018-01-23T04:22:35.177Z,2.06
2018-01-23T04:25:02.772Z,2.05
2018-01-23T04:27:30.626Z,2.02
2018-01-23T04:29:58.226Z,2.03
2018-01-23T04:32:25.837Z,2.07
2018-01-23T04:34:53.710Z,2.04
2018-01-23T04:37:21.263Z,2.04
2018-01-23T04:39:48.836Z,2.05
2018-01-23T04:42:16.453Z,2.09
2018-01-23T04:44:44.256Z,2.03
2018-01-23T04:47:11.853Z,2.05
2018-01-23T04:49:39.449Z,2.04
2018-01-23T04:52:07.082Z,2.05
2018-01-23T04:54:34.660Z,2.07
2018-01-23T04:57:02.264Z,2.06
2018-01-23T04:59:29.859Z,2.00
2018-01-23T05:01:57.461Z,2.02
2018-01-23T05:04:25.364Z,2.05
2018-01-23T05:06:52.938Z,2.01
2018-01-23T05:09:20.511Z,2.04
2018-01-23T05:11:48.112Z,2.01
2018-01-23T05:14:15.677Z,2.04
2018-01-23T05:16:43.258Z,2.05
2018-01-23T05:19:11.139Z,2.07
2018-01-23T05:21:38.912Z,2.09
2018-01-23T05:24:06.468Z,2.10
2018-01-23T05:26:34.051Z,2.11
2018-01-23T05:29:01.904Z,2.12
2018-01-23T05:31:29.508Z,2.05
2018-01-23T05:33:57.081Z,2.07
2018-01-23T05:36:24.665Z,2.10
2018-01-23T05:38:52.243Z,2.09
2018-01-23T05:41:19.816Z,2.12
2018-01-23T05:43:47.475Z,2.11
2018-01-23T05:46:15.087Z,2.10
2018-01-23T05:48:42.655Z,2.10
2018-01-23T05:51:10.213Z,2.11
2018-01-23T05:53:37.794Z,2.15
2018-01-23T05:56:05.355Z,2.16
2018-01-23T05:58:33.019Z,2.17
2018-01-23T06:01:00.623Z,2.17
2018-01-23T06:03:28.228Z,2.11
2018-01-23T06:05:56.121Z,2.13
2018-01-23T06:08:23.993Z,2.09
2018-01-23T06:10:51.578Z,2.08
2018-01-23T06:13:19.213Z,2.08
2018-01-23T06:15:47.082Z,2.18
2018-01-23T06:18:14.668Z,2.18
2018-01-23T06:20:42.527Z,2.20
2018-01-23T06:23:10.401Z,2.19
2018-01-23T06:25:38.035Z,2.23
2018-01-23T06:28:05.593Z,2.21
2018-01-23T06:30:33.162Z,2.22
2018-01-23T06:33:00.762Z,2.23
2018-01-23T06:35:28.395Z,2.24
2018-01-23T06:37:55.952Z,2.20
2018-01-23T06:40:23.595Z,2.24
2018-01-23T06:42:51.174Z,2.24
2018-01-23T06:45:18.737Z,2.29
2018-01-23T06:47:46.329Z,2.29
2018-01-23T06:50:13.934Z,2.27
2018-01-23T06:52:41.555Z,2.29
2018-01-23T06:55:09.156Z,2.28
2018-01-23T06:57:36.732Z,2.13
2018-01-23T07:00:04.389Z,2.17
2018-01-23T07:02:32.033Z,1.99
2018-01-23T07:04:59.937Z,2.01
2018-01-23T07:07:28.070Z,1.77
2018-01-23T07:09:55.686Z,1.77
2018-01-23T07:12:23.318Z,1.78
2018-01-23T07:14:50.922Z,1.68
2018-01-23T07:17:18.530Z,1.79
2018-01-23T07:19:46.433Z,1.89
2018-01-23T07:22:14.095Z,1.94
2018-01-23T07:24:41.735Z,2.00
2018-01-23T07:27:09.304Z,2.01
2018-01-23T07:29:36.883Z,2.06
2018-01-23T07:32:04.495Z,2.06
2018-01-23T07:34:32.337Z,2.09
2018-01-23T07:36:59.942Z,1.84
2018-01-23T07:39:27.521Z,1.90
2018-01-23T07:41:55.153Z,1.84
2018-01-23T07:44:22.759Z,1.98
2018-01-23T07:46:50.359Z,1.96
2018-01-23T07:49:17.936Z,1.95
2018-01-23T07:51:45.605Z,1.95
2018-01-23T07:54:13.242Z,2.05
2018-01-23T07:56:40.862Z,2.04
2018-01-23T07:59:08.482Z,2.09
2018-01-23T08:01:36.083Z,2.09
2018-01-23T08:04:03.717Z,2.18
2018-01-23T08:06:31.344Z,2.27
2018-01-23T08:08:58.937Z,2.33
2018-01-23T08:11:26.596Z,2.43
2018-01-23T08:13:54.178Z,2.49
2018-01-23T08:16:21.843Z,2.54
2018-01-23T08:18:49.527Z,2.58
2018-01-23T08:21:17.456Z,2.62
2018-01-23T08:23:46.952Z,2.68
2018-01-23T08:26:14.768Z,2.79
2018-01-23T08:28:42.408Z,2.86
2018-01-23T08:31:10.003Z,2.92
2018-01-23T08:33:37.615Z,2.86
2018-01-23T08:36:05.196Z,2.68
2018-01-23T08:38:32.782Z,2.47
2018-01-23T08:41:00.422Z,2.46
2018-01-23T08:43:27.980Z,2.51
2018-01-23T08:45:55.541Z,2.51
2018-01-23T08:48:23.181Z,2.50
2018-01-23T08:50:50.768Z,2.58
2018-01-23T08:53:18.367Z,2.51
2018-01-23T08:55:45.985Z,2.42
2018-01-23T08:58:13.598Z,2.20
2018-01-23T09:00:41.225Z,2.26
2018-01-23T09:03:08.780Z,2.16
2018-01-23T09:05:36.367Z,2.24
2018-01-23T09:08:04.034Z,2.39
2018-01-23T09:10:31.805Z,2.42
2018-01-23T09:12:59.379Z,2.44
2018-01-23T09:15:26.986Z,2.56
2018-01-23T09:17:54.551Z,2.62
2018-01-23T09:20:22.138Z,2.76
2018-01-23T09:22:49.855Z,2.56
2018-01-23T09:25:17.457Z,2.78
2018-01-23T09:27:45.024Z,2.99
2018-01-23T09:30:12.644Z,3.15
2018-01-23T09:32:40.228Z,3.01
2018-01-23T09:35:07.816Z,2.84
2018-01-23T09:37:35.373Z,2.75
2018-01-23T09:40:02.974Z,2.76
2018-01-23T09:42:31.012Z,2.42
2018-01-23T09:44:59.061Z,2.28
2018-01-23T09:47:27.309Z,2.30
2018-01-23T09:49:54.960Z,2.45
2018-01-23T09:52:22.549Z,2.63
2018-01-23T09:54:50.133Z,2.67
2018-01-23T09:57:17.755Z,2.66
2018-01-23T09:59:45.464Z,2.62
2018-01-23T10:02:13.138Z,2.79
2018-01-23T10:04:40.735Z,2.71
2018-01-23T10:07:08.290Z,2.78
2018-01-23T10:09:35.942Z,2.50
2018-01-23T10:12:03.584Z,2.46
2018-01-23T10:14:32.355Z,2.80
2018-01-23T10:16:59.920Z,2.91
2018-01-23T10:19:27.501Z,3.16
2018-01-23T10:21:55.075Z,3.28
2018-01-23T10:24:22.998Z,3.37
2018-01-23T10:26:50.627Z,3.36
2018-01-23T10:29:18.528Z,3.41
2018-01-23T10:31:46.140Z,3.47
2018-01-23T10:34:13.717Z,3.57
2018-01-23T10:36:41.325Z,3.52
2018-01-23T10:39:08.919Z,3.46
2018-01-23T10:41:36.513Z,3.20
2018-01-23T10:44:04.127Z,3.15
2018-01-23T10:46:31.764Z,2.97
2018-01-23T10:48:59.405Z,2.91
2018-01-23T10:51:26.983Z,3.02
2018-01-23T10:53:54.551Z,3.12
2018-01-23T10:56:22.141Z,3.34
2018-01-23T10:58:49.721Z,3.42
2018-01-23T11:01:17.334Z,3.43
2018-01-23T11:03:44.943Z,3.45
2018-01-23T11:06:12.528Z,3.48
2018-01-23T11:08:40.125Z,3.46
2018-01-23T11:11:07.727Z,3.46
2018-01-23T11:13:35.549Z,3.45
2018-01-23T11:16:03.128Z,3.36
2018-01-23T11:18:30.974Z,3.14
2018-01-23T11:20:59.530Z,3.15
2018-01-23T11:23:27.092Z,3.12
2018-01-23T11:25:54.778Z,3.30
2018-01-23T11:28:22.345Z,3.34
2018-01-23T11:30:50.215Z,3.41
2018-01-23T11:33:17.745Z,3.43
2018-01-23T11:35:45.364Z,3.60
2018-01-23T11:38:12.993Z,3.77
2018-01-23T11:40:40.802Z,3.93
2018-01-23T11:43:08.626Z,4.11
2018-01-23T11:45:36.530Z,4.15
2018-01-23T11:48:04.091Z,4.32
2018-01-23T11:50:31.668Z,4.31
2018-01-23T11:52:59.604Z,4.17
2018-01-23T11:55:27.264Z,4.14
2018-01-23T11:57:54.838Z,4.31
2018-01-23T12:00:22.430Z,4.38
2018-01-23T12:02:50.053Z,4.30
2018-01-23T12:05:17.627Z,4.06
2018-01-23T12:07:45.488Z,3.66
2018-01-23T12:10:13.060Z,3.37
2018-01-23T12:12:40.654Z,3.65
2018-01-23T12:15:08.210Z,3.70
2018-01-23T12:17:36.124Z,3.76
2018-01-23T12:20:03.703Z,3.54
2018-01-23T12:22:31.340Z,3.62
2018-01-23T12:24:58.943Z,3.68
2018-01-23T12:27:26.526Z,3.74
2018-01-23T12:29:54.121Z,3.75
2018-01-23T12:32:21.739Z,3.57
2018-01-23T12:34:49.353Z,3.65
2018-01-23T12:37:16.903Z,3.63
2018-01-23T12:39:44.518Z,3.73
2018-01-23T12:42:12.089Z,3.77
2018-01-23T12:44:39.667Z,3.89
2018-01-23T12:47:07.429Z,3.85
2018-01-23T12:49:35.322Z,3.84
2018-01-23T12:52:02.933Z,3.79
2018-01-23T12:54:30.500Z,3.85
2018-01-23T12:56:58.419Z,3.90
2018-01-23T12:59:25.996Z,3.98
2018-01-23T13:01:53.841Z,3.89
2018-01-23T13:04:21.730Z,3.93
2018-01-23T13:06:49.358Z,3.94
2018-01-23T13:09:16.945Z,3.92
2018-01-23T13:11:44.579Z,4.09
2018-01-23T13:14:12.181Z,4.14
2018-01-23T13:16:39.746Z,4.20
2018-01-23T13:19:07.360Z,4.24
2018-01-23T13:21:35.252Z,4.22
2018-01-23T13:24:02.792Z,4.21
2018-01-23T13:26:30.388Z,4.22
2018-01-23T13:28:57.950Z,4.26
2018-01-23T13:31:25.619Z,4.20
2018-01-23T13:33:53.589Z,4.20
2018-01-23T13:36:21.546Z,4.27
2018-01-23T13:38:49.157Z,4.29
2018-01-23T13:41:16.719Z,4.35
2018-01-23T13:43:44.385Z,4.38
2018-01-23T13:46:12.151Z,4.32
2018-01-23T13:48:39.786Z,4.28
2018-01-23T13:51:07.377Z,4.33
2018-01-23T13:53:34.995Z,4.37
2018-01-23T13:56:02.850Z,4.33
2018-01-23T13:58:30.930Z,4.38
2018-01-23T14:00:58.499Z,4.31
2018-01-23T14:03:26.076Z,4.33
2018-01-23T14:05:53.912Z,4.34
2018-01-23T14:08:21.517Z,4.22
2018-01-23T14:10:49.342Z,4.30
2018-01-23T14:13:16.907Z,4.31
2018-01-23T14:15:44.531Z,4.24
2018-01-23T14:18:12.661Z,4.26
2018-01-23T14:20:40.256Z,4.27
2018-01-23T14:23:07.884Z,4.28
2018-01-23T14:25:35.448Z,4.35
2018-01-23T14:28:03.058Z,4.37
2018-01-23T14:30:30.649Z,4.35
2018-01-23T14:32:58.233Z,4.34
2018-01-23T14:35:25.794Z,4.35
2018-01-23T14:37:53.393Z,4.33
2018-01-23T14:40:20.948Z,4.41
2018-01-23T14:42:48.514Z,4.42
2018-01-23T14:45:16.083Z,4.42
2018-01-23T14:47:43.641Z,4.41
2018-01-23T14:50:11.251Z,4.39
2018-01-23T14:52:39.101Z,4.36
2018-01-23T14:55:06.688Z,4.36
2018-01-23T14:57:34.531Z,4.39
2018-01-23T15:00:02.121Z,4.35
2018-01-23T15:02:29.772Z,4.34
2018-01-23T15:04:57.357Z,4.31
2018-01-23T15:07:24.937Z,4.33
2018-01-23T15:09:52.534Z,4.33
2018-01-23T15:12:20.130Z,4.29
2018-01-23T15:14:47.957Z,4.29
2018-01-23T15:17:15.562Z,4.30
2018-01-23T15:19:43.166Z,4.27
2018-01-23T15:22:10.763Z,4.31
2018-01-23T15:24:38.384Z,4.36
2018-01-23T15:27:05.955Z,4.39
2018-01-23T15:29:33.541Z,4.37
2018-01-23T15:32:01.164Z,4.35
2018-01-23T15:34:28.806Z,4.37
2018-01-23T15:36:56.799Z,4.40
2018-01-23T15:39:24.449Z,4.36
2018-01-23T15:41:52.006Z,4.39
2018-01-23T15:44:20.332Z,4.45
2018-01-23T15:46:48.031Z,4.39
2018-01-23T15:49:15.680Z,4.42
2018-01-23T15:51:43.538Z,4.40
2018-01-23T15:54:11.106Z,4.46
2018-01-23T15:56:38.680Z,4.47
2018-01-23T15:59:06.274Z,4.46
2018-01-23T16:01:33.897Z,4.46
2018-01-23T16:04:01.459Z,4.42
2018-01-23T16:06:29.301Z,4.43
2018-01-23T16:08:56.893Z,4.45
2018-01-23T16:11:24.744Z,4.38
2018-01-23T16:13:52.360Z,4.44
2018-01-23T16:16:19.919Z,4.39
2018-01-23T16:18:47.510Z,4.42
2018-01-23T16:21:15.128Z,4.43
2018-01-23T16:23:42.738Z,4.44
2018-01-23T16:26:10.609Z,4.47
2018-01-23T16:28:38.209Z,4.48
2018-01-23T16:31:05.793Z,4.49
2018-01-23T16:33:33.801Z,4.46
2018-01-23T16:36:01.406Z,4.55
2018-01-23T16:38:28.979Z,4.51
2018-01-23T16:40:56.576Z,4.56
2018-01-23T16:43:24.139Z,4.63
2018-01-23T16:45:51.768Z,4.69
2018-01-23T16:48:19.423Z,4.64
2018-01-23T16:50:47.001Z,4.63
2018-01-23T16:53:14.593Z,4.68
2018-01-23T16:55:42.459Z,4.63
2018-01-23T16:58:10.023Z,4.65
2018-01-23T17:00:37.585Z,4.67
2018-01-23T17:03:05.438Z,4.63
2018-01-23T17:05:33.035Z,4.61
2018-01-23T17:08:00.598Z,4.60
2018-01-23T17:10:28.191Z,4.66
2018-01-23T17:12:55.783Z,4.61
2018-01-23T17:15:23.416Z,4.64
2018-01-23T17:17:51.321Z,4.64
2018-01-23T17:20:18.874Z,4.65
2018-01-23T17:22:46.495Z,4.64
2018-01-23T17:25:14.094Z,4.66
2018-01-23T17:27:41.689Z,4.64
2018-01-23T17:30:09.274Z,4.71
2018-01-23T17:32:37.102Z,4.81
2018-01-23T17:35:05.086Z,4.85
2018-01-23T17:37:32.670Z,4.89
2018-01-23T17:40:00.265Z,4.82
2018-01-23T17:42:27.870Z,4.87
2018-01-23T17:44:55.809Z,4.86
2018-01-23T17:47:23.546Z,4.87
2018-01-23T17:49:51.121Z,4.88
2018-01-23T17:52:19.334Z,4.86
2018-01-23T17:54:47.251Z,4.89
2018-01-23T17:57:14.897Z,4.88
2018-01-23T17:59:42.622Z,4.88
2018-01-23T18:02:10.184Z,4.94
2018-01-23T18:04:37.784Z,4.99
2018-01-23T18:07:05.472Z,4.99
2018-01-23T18:09:33.200Z,4.96
2018-01-23T18:12:00.754Z,4.95
2018-01-23T18:14:28.611Z,4.94
2018-01-23T18:16:56.199Z,4.93
2018-01-23T18:19:23.758Z,4.98
2018-01-23T18:21:51.401Z,4.99
2018-01-23T18:24:19.261Z,4.97
2018-01-23T18:26:46.817Z,5.01
2018-01-23T18:29:14.464Z,4.95
2018-01-23T18:31:42.038Z,4.93
2018-01-23T18:34:09.647Z,4.86
2018-01-23T18:36:37.270Z,4.88
2018-01-23T18:39:04.922Z,4.87
2018-01-23T18:41:32.556Z,4.84
2018-01-23T18:44:00.189Z,4.82
2018-01-23T18:46:27.797Z,4.87
2018-01-23T18:48:55.372Z,4.82
2018-01-23T18:51:22.997Z,4.82
2018-01-23T18:53:50.564Z,4.83
2018-01-23T18:56:18.112Z,4.86
2018-01-23T18:58:45.717Z,4.82
2018-01-23T19:01:13.324Z,4.90
2018-01-23T19:03:40.929Z,4.93
2018-01-23T19:06:08.800Z,4.91
2018-01-23T19:08:36.465Z,4.92
2018-01-23T19:11:04.067Z,4.94
2018-01-23T19:13:31.613Z,5.00
2018-01-23T19:15:59.207Z,5.02
2018-01-23T19:18:26.792Z,5.02
2018-01-23T19:20:54.450Z,5.05
2018-01-23T19:23:22.044Z,5.08
2018-01-23T19:25:49.672Z,5.10
2018-01-23T19:28:18.758Z,5.14
2018-01-23T19:30:46.426Z,5.11
2018-01-23T19:33:17.438Z,5.11
2018-01-23T19:35:45.470Z,5.12
2018-01-23T19:38:13.137Z,5.11
2018-01-23T19:40:40.800Z,5.13
2018-01-23T19:43:08.424Z,5.11
2018-01-23T19:45:36.030Z,5.16
2018-01-23T19:48:03.988Z,5.15
2018-01-23T19:50:31.597Z,5.18
2018-01-23T19:52:59.184Z,5.18
2018-01-23T19:55:26.800Z,5.20
2018-01-23T19:57:54.413Z,5.25
2018-01-23T20:00:22.079Z,5.26
2018-01-23T20:02:49.719Z,5.20
2018-01-23T20:05:17.295Z,5.18
2018-01-23T20:07:44.919Z,5.21
2018-01-23T20:10:12.488Z,5.20
2018-01-23T20:12:40.085Z,5.23
2018-01-23T20:15:07.721Z,5.27
2018-01-23T20:17:35.281Z,5.28
2018-01-23T20:20:03.201Z,5.27
2018-01-23T20:22:30.773Z,5.32
2018-01-23T20:24:58.358Z,5.32
2018-01-23T20:27:26.007Z,5.34
2018-01-23T20:29:53.612Z,5.33
2018-01-23T20:32:21.230Z,5.28
2018-01-23T20:34:48.806Z,5.29
2018-01-23T20:37:16.449Z,5.33
2018-01-23T20:39:44.108Z,5.37
2018-01-23T20:42:11.723Z,5.48
2018-01-23T20:44:39.346Z,5.46
2018-01-23T20:47:07.095Z,5.50
2018-01-23T20:49:34.837Z,5.55
2018-01-23T20:52:02.427Z,5.52
2018-01-23T20:54:30.073Z,5.57
2018-01-23T20:56:57.773Z,5.53
2018-01-23T20:59:25.529Z,5.58
2018-01-23T21:01:53.129Z,5.58
2018-01-23T21:04:20.741Z,5.62
2018-01-23T21:06:48.436Z,5.60
2018-01-23T21:09:16.164Z,5.61
2018-01-23T21:11:43.806Z,5.61
2018-01-23T21:14:11.407Z,5.61
2018-01-23T21:16:39.099Z,5.61
2018-01-23T21:19:06.700Z,5.62
2018-01-23T21:21:34.357Z,5.62
2018-01-23T21:24:02.033Z,5.63
2018-01-23T21:26:29.884Z,5.63
2018-01-23T21:28:57.527Z,5.66
2018-01-23T21:31:25.112Z,5.70
2018-01-23T21:33:52.724Z,5.71
2018-01-23T21:36:20.317Z,5.72
2018-01-23T21:38:47.939Z,5.74
2018-01-23T21:41:15.497Z,5.76
2018-01-23T21:43:43.112Z,5.81
2018-01-23T21:46:10.758Z,5.78
2018-01-23T21:48:38.336Z,5.83
2018-01-23T21:51:05.931Z,5.80
2018-01-23T21:53:33.556Z,5.84
2018-01-23T21:56:01.411Z,5.85
2018-01-23T21:58:29.288Z,5.85
2018-01-23T22:00:56.879Z,5.78
2018-01-23T22:03:24.447Z,5.80
2018-01-23T22:05:52.035Z,5.81
2018-01-23T22:08:19.644Z,5.78
2018-01-23T22:10:47.223Z,5.84
2018-01-23T22:13:14.893Z,5.79
2018-01-23T22:15:42.493Z,5.82
2018-01-23T22:18:10.051Z,5.80
2018-01-23T22:20:37.680Z,5.83
2018-01-23T22:23:05.438Z,5.83
2018-01-23T22:25:33.599Z,5.83
2018-01-23T22:28:01.576Z,5.85
2018-01-23T22:30:29.134Z,5.85
2018-01-23T22:32:56.739Z,5.87
2018-01-23T22:35:24.541Z,5.88
2018-01-23T22:37:52.124Z,5.86
2018-01-23T22:40:19.698Z,5.86
2018-01-23T22:42:47.276Z,5.88
2018-01-23T22:45:14.896Z,5.86
2018-01-23T22:47:42.504Z,5.86
2018-01-23T22:50:10.076Z,5.90
2018-01-23T22:52:37.785Z,5.93
2018-01-23T22:55:05.427Z,5.96
2018-01-23T22:57:33.057Z,5.95
2018-01-23T23:00:00.647Z,5.94
2018-01-23T23:02:28.246Z,5.96
2018-01-23T23:04:55.830Z,6.00
2018-01-23T23:07:23.538Z,5.97
2018-01-23T23:09:51.144Z,5.97
2018-01-23T23:12:19.197Z,5.98
2018-01-23T23:14:46.773Z,6.05
2018-01-23T23:17:14.372Z,6.03
2018-01-23T23:19:41.954Z,5.97
2018-01-23T23:22:09.534Z,5.96
2018-01-23T23:24:37.100Z,5.97
2018-01-23T23:27:04.751Z,6.01
2018-01-23T23:29:32.352Z,6.00
2018-01-23T23:32:00.009Z,6.00
2018-01-23T23:34:27.973Z,6.01
2018-01-23T23:36:55.604Z,6.00
2018-01-23T23:39:23.205Z,5.97
2018-01-23T23:41:50.742Z,5.98
2018-01-23T23:44:18.325Z,6.00
2018-01-23T23:46:45.914Z,6.02
2018-01-23T23:49:13.501Z,5.98
2018-01-23T23:51:41.077Z,6.03
2018-01-23T23:54:08.637Z,5.97
2018-01-23T23:56:36.206Z,6.01
2018-01-23T23:59:04.086Z,6.03
